Time;durP1;ratioP1;P1;durP2;ratioP2;P2;SDS_P1;SDS_P2;PMS_P1;PMS_P2;Temp;Humidity;BMP_temperature;BMP_pressure;BME280_temperature;BME280_humidity;BME280_pressure;Samples;Min_cycle;Max_cycle;Signal;HPM_P1;HPM_P2
2021/12/12 00:00:44;;;;;;;7.50;5.47;;;7.60;68.90;;;-142.21;100.00;112049.66;4997013;28;20207;-80
2021/12/12 00:03:20;;;;;;;8.97;5.83;;;7.60;69.30;;;-142.21;100.00;112049.66;4999481;28;20455;-78
2021/12/12 00:05:56;;;;;;;9.13;6.23;;;7.60;69.50;;;-142.21;100.00;112049.66;4995653;28;20442;-78
2021/12/12 00:08:26;;;;;;;6.53;5.57;;;7.60;69.80;;;-142.21;100.00;112049.66;4994354;28;20486;-78
2021/12/12 00:11:01;;;;;;;9.60;5.70;;;7.50;70.00;;;-142.21;100.00;112049.66;5004693;28;20505;-78
2021/12/12 00:13:34;;;;;;;11.10;5.60;;;7.60;70.20;;;-142.21;100.00;112049.66;4996848;28;20435;-79
2021/12/12 00:16:02;;;;;;;8.43;5.73;;;7.60;69.80;;;-142.21;100.00;112049.66;5010521;28;20477;-78
2021/12/12 00:18:29;;;;;;;8.17;5.50;;;7.60;69.20;;;-142.21;100.00;112049.66;5003254;28;20461;-77
2021/12/12 00:20:58;;;;;;;8.40;6.20;;;7.60;69.20;;;-142.21;100.00;112049.66;5012409;28;20492;-77
2021/12/12 00:23:26;;;;;;;10.17;5.67;;;7.60;69.20;;;-142.21;100.00;112049.66;5004354;28;20486;-79
2021/12/12 00:25:59;;;;;;;9.00;5.23;;;7.50;69.30;;;-142.21;100.00;112049.66;4992365;28;20529;-79
2021/12/12 00:28:28;;;;;;;9.70;5.43;;;7.50;69.40;;;-142.21;100.00;112049.66;4992746;28;20494;-80
2021/12/12 00:31:07;;;;;;;8.80;5.45;;;7.50;69.50;;;-142.21;100.00;112049.66;5005940;28;20521;-80
2021/12/12 00:33:36;;;;;;;8.57;5.83;;;7.50;69.30;;;-142.21;100.00;112049.66;4991393;28;20303;-79
2021/12/12 00:36:06;;;;;;;11.18;5.97;;;7.50;69.20;;;-142.21;100.00;112049.66;5001085;28;20482;-80
2021/12/12 00:38:36;;;;;;;8.10;5.20;;;7.50;68.70;;;-142.21;100.00;112049.66;4992112;28;20274;-78
2021/12/12 00:41:10;;;;;;;9.10;5.70;;;7.50;68.80;;;-142.21;100.00;112049.66;4992945;28;20314;-78
2021/12/12 00:43:45;;;;;;;8.43;5.63;;;7.50;68.70;;;-142.21;100.00;112049.66;4993312;28;20558;-78
2021/12/12 00:46:13;;;;;;;8.83;5.40;;;7.40;68.80;;;-142.21;100.00;112049.66;4995995;28;20470;-80
2021/12/12 00:48:47;;;;;;;10.48;5.82;;;7.40;68.80;;;-142.21;100.00;112049.66;4992906;28;20490;-80
2021/12/12 00:51:21;;;;;;;6.00;5.27;;;7.40;68.70;;;-142.21;100.00;112049.66;4998912;28;20310;-79
2021/12/12 00:53:50;;;;;;;9.73;6.20;;;7.50;68.70;;;-142.21;100.00;112049.66;5007528;28;20521;-79
2021/12/12 00:56:18;;;;;;;7.40;4.93;;;7.50;68.30;;;-142.21;100.00;112049.66;4993747;28;21037;-79
2021/12/12 00:58:45;;;;;;;9.10;5.55;;;7.50;68.40;;;-142.21;100.00;112049.66;4991854;28;20533;-80
2021/12/12 01:01:18;;;;;;;6.60;4.88;;;7.50;68.10;;;-142.21;100.00;112049.66;4991926;28;20264;-80
2021/12/12 01:03:50;;;;;;;7.40;5.80;;;7.60;68.30;;;-142.21;100.00;112049.66;4995475;28;20267;-80
2021/12/12 01:06:24;;;;;;;8.83;5.23;;;7.60;68.50;;;-142.21;100.00;112049.66;5002014;28;20438;-79
2021/12/12 01:08:55;;;;;;;7.97;5.30;;;7.60;68.00;;;-142.21;100.00;112049.66;5012912;28;20484;-80
2021/12/12 01:11:30;;;;;;;8.85;5.40;;;7.50;67.70;;;-142.21;100.00;112049.66;5015941;28;20477;-80
2021/12/12 01:13:58;;;;;;;7.68;5.07;;;7.50;67.70;;;-142.21;100.00;112049.66;5009329;28;20223;-79
2021/12/12 01:16:33;;;;;;;6.93;4.37;;;7.50;67.60;;;-142.21;100.00;112049.66;4995574;28;20224;-80
2021/12/12 01:19:13;;;;;;;7.20;5.13;;;7.60;67.70;;;-142.21;100.00;112049.66;5010336;28;20791;-80
2021/12/12 01:21:48;;;;;;;8.43;5.10;;;7.50;67.40;;;-142.21;100.00;112049.66;4997317;28;20443;-78
2021/12/12 01:24:24;;;;;;;8.73;5.47;;;7.50;67.60;;;-142.21;100.00;112049.66;5004076;28;20521;-78
2021/12/12 01:26:55;;;;;;;8.43;5.00;;;7.40;67.90;;;-142.21;100.00;112049.66;5000270;28;20965;-78
2021/12/12 01:29:22;;;;;;;7.97;4.82;;;7.40;68.20;;;-142.21;100.00;112049.66;5013796;28;20513;-79
2021/12/12 01:31:50;;;;;;;8.02;4.70;;;7.30;68.20;;;-142.21;100.00;112049.66;5000587;28;20227;-79
2021/12/12 01:34:28;;;;;;;7.57;4.80;;;7.40;68.20;;;-142.21;100.00;112049.66;5014080;28;20286;-79
2021/12/12 01:37:22;;;;;;;7.57;4.75;;;7.40;68.10;;;-142.21;100.00;112049.66;5014232;28;20265;-79
2021/12/12 01:39:54;;;;;;;6.18;4.50;;;7.40;68.00;;;-142.21;100.00;112049.66;4995883;28;20204;-78
2021/12/12 01:42:27;;;;;;;5.47;4.33;;;7.40;67.90;;;-142.21;100.00;112049.66;4994819;28;20192;-80
2021/12/12 01:45:02;;;;;;;8.57;4.85;;;7.40;68.20;;;-142.21;100.00;112049.66;5000786;28;20870;-79
2021/12/12 01:47:40;;;;;;;7.40;4.30;;;7.40;68.20;;;-142.21;100.00;112049.66;5014284;28;20195;-80
2021/12/12 01:50:13;;;;;;;8.18;4.53;;;7.30;68.20;;;-142.21;100.00;112049.66;5015486;28;20472;-80
2021/12/12 01:52:45;;;;;;;8.32;4.60;;;7.30;68.30;;;-142.21;100.00;112049.66;5014071;28;20602;-80
2021/12/12 01:55:23;;;;;;;8.40;4.93;;;7.30;68.50;;;-142.21;100.00;112049.66;5007312;28;20274;-80
2021/12/12 01:57:54;;;;;;;7.37;4.23;;;7.30;68.30;;;-142.21;100.00;112049.66;5005491;28;20473;-79
2021/12/12 02:00:33;;;;;;;6.60;4.10;;;7.30;68.10;;;-142.21;100.00;112049.66;5014243;28;20522;-80
2021/12/12 02:03:04;;;;;;;6.07;4.20;;;7.30;68.20;;;-142.21;100.00;112049.66;5001540;28;20564;-79
2021/12/12 02:05:32;;;;;;;6.43;4.15;;;7.30;67.90;;;-142.21;100.00;112049.66;5000123;28;20521;-79
2021/12/12 02:08:08;;;;;;;6.10;3.80;;;7.40;67.90;;;-142.21;100.00;112049.66;5014186;28;20565;-80
2021/12/12 02:10:42;;;;;;;8.07;3.97;;;7.40;67.80;;;-142.21;100.00;112049.66;4998297;28;20463;-80
2021/12/12 02:13:14;;;;;;;4.63;3.60;;;7.40;67.70;;;-142.21;100.00;112049.66;4994247;28;20431;-80
2021/12/12 02:15:46;;;;;;;6.30;3.97;;;7.40;68.00;;;-142.21;100.00;112049.66;5005275;28;20557;-79
2021/12/12 02:18:19;;;;;;;8.77;4.17;;;7.50;67.90;;;-142.21;100.00;112049.66;5013788;28;20609;-79
2021/12/12 02:21:05;;;;;;;5.20;3.80;;;7.40;67.80;;;-142.21;100.00;112049.66;4994808;28;20475;-80
2021/12/12 02:23:56;;;;;;;7.47;3.95;;;7.40;68.20;;;-142.21;100.00;112049.66;5013404;28;20510;-80
2021/12/12 02:37:28;;;;;;;5.00;3.57;;;7.60;67.50;;;-142.21;100.00;112049.66;5004448;28;20198;-80
2021/12/12 02:39:58;;;;;;;5.97;3.83;;;7.60;67.20;;;-142.21;100.00;112049.66;5012365;28;20450;-80
2021/12/12 02:42:26;;;;;;;7.20;4.57;;;7.70;67.60;;;-142.21;100.00;112049.66;5004845;28;20439;-79
2021/12/12 02:44:58;;;;;;;6.63;4.00;;;7.70;67.70;;;-142.21;100.00;112049.66;4994661;28;20533;-80
2021/12/12 02:47:33;;;;;;;10.60;3.90;;;7.70;67.70;;;-142.21;100.00;112049.66;4993509;28;20906;-79
2021/12/12 02:50:13;;;;;;;6.50;3.70;;;7.70;67.80;;;-142.21;100.00;112049.66;4994672;28;20423;-77
2021/12/12 02:52:45;;;;;;;6.37;4.63;;;7.70;67.90;;;-142.21;100.00;112049.66;5013364;28;20227;-78
2021/12/12 02:55:19;;;;;;;8.85;4.82;;;7.70;67.70;;;-142.21;100.00;112049.66;4960490;28;20993;-79
2021/12/12 02:57:47;;;;;;;8.47;4.50;;;7.70;67.80;;;-142.21;100.00;112049.66;4993817;28;20621;-79
2021/12/12 03:00:19;;;;;;;8.53;4.43;;;7.70;67.60;;;-142.21;100.00;112049.66;4993002;28;20495;-80
2021/12/12 03:02:56;;;;;;;9.40;4.80;;;7.70;67.60;;;-142.21;100.00;112049.66;4993495;28;20590;-81
2021/12/12 03:05:29;;;;;;;6.47;4.40;;;7.70;67.30;;;-142.21;100.00;112049.66;4993444;28;20502;-79
2021/12/12 03:07:57;;;;;;;6.43;3.97;;;7.70;67.30;;;-142.21;100.00;112049.66;5012148;28;20533;-80
2021/12/12 03:10:32;;;;;;;7.10;4.53;;;7.80;67.70;;;-142.21;100.00;112049.66;4999015;28;20471;-80
2021/12/12 03:13:00;;;;;;;5.17;4.17;;;7.70;67.70;;;-142.21;100.00;112049.66;4993511;28;20447;-80
2021/12/12 03:15:31;;;;;;;7.22;4.82;;;7.60;67.10;;;-142.21;100.00;112049.66;5004597;28;20516;-79
2021/12/12 03:18:03;;;;;;;6.13;4.37;;;7.60;67.10;;;-142.21;100.00;112049.66;5006421;28;20283;-80
2021/12/12 03:20:35;;;;;;;7.28;4.20;;;7.60;67.20;;;-142.21;100.00;112049.66;4992739;28;20517;-80
2021/12/12 03:23:07;;;;;;;5.97;4.53;;;7.50;67.50;;;-142.21;100.00;112049.66;4993224;28;20319;-80
2021/12/12 03:25:40;;;;;;;7.53;4.67;;;7.40;67.70;;;-142.21;100.00;112049.66;4993882;28;20561;-79
2021/12/12 03:28:11;;;;;;;6.45;4.03;;;7.30;67.80;;;-142.21;100.00;112049.66;5012816;28;20517;-80
2021/12/12 03:30:41;;;;;;;6.63;4.30;;;7.30;67.90;;;-142.21;100.00;112049.66;4964745;28;20254;-79
2021/12/12 03:33:10;;;;;;;4.93;4.20;;;7.20;68.10;;;-142.21;100.00;112049.66;4992758;28;20499;-80
2021/12/12 03:35:38;;;;;;;5.75;4.18;;;7.20;68.30;;;-142.21;100.00;112049.66;5002941;28;20230;-79
2021/12/12 03:38:07;;;;;;;8.23;4.37;;;7.20;67.70;;;-142.21;100.00;112049.66;5012833;28;20223;-80
2021/12/12 03:40:39;;;;;;;8.52;4.10;;;7.20;67.70;;;-142.21;100.00;112049.66;5003235;28;20493;-79
2021/12/12 03:43:09;;;;;;;5.93;3.75;;;7.20;67.70;;;-142.21;100.00;112049.66;4993757;28;20204;-80
2021/12/12 03:45:39;;;;;;;6.03;3.88;;;7.20;67.50;;;-142.21;100.00;112049.66;5012769;28;20227;-80
2021/12/12 03:48:15;;;;;;;9.15;4.00;;;7.20;67.20;;;-142.21;100.00;112049.66;4997542;28;20259;-80
2021/12/12 03:50:46;;;;;;;6.50;4.03;;;7.10;67.40;;;-142.21;100.00;112049.66;5005069;28;20788;-79
2021/12/12 03:53:17;;;;;;;5.60;3.72;;;7.10;67.20;;;-142.21;100.00;112049.66;5011813;28;20509;-79
2021/12/12 03:55:49;;;;;;;4.82;3.60;;;7.10;67.10;;;-142.21;100.00;112049.66;4993176;28;20642;-80
2021/12/12 03:58:17;;;;;;;6.28;3.50;;;7.00;67.00;;;-142.21;100.00;112049.66;4992449;28;20239;-80
2021/12/12 04:00:50;;;;;;;5.88;3.53;;;7.00;67.00;;;-142.21;100.00;112049.66;4992950;28;20239;-79
2021/12/12 04:03:19;;;;;;;6.50;3.53;;;7.00;67.10;;;-142.21;100.00;112049.66;4997678;28;20655;-79
2021/12/12 04:05:49;;;;;;;6.07;3.40;;;6.90;66.80;;;-142.21;100.00;112049.66;5008683;28;20518;-80
2021/12/12 04:08:16;;;;;;;5.93;3.70;;;6.90;67.40;;;-142.21;100.00;112049.66;5010370;28;20270;-80
2021/12/12 04:10:48;;;;;;;7.47;3.45;;;6.80;67.30;;;-142.21;100.00;112049.66;5004514;28;20235;-79
2021/12/12 04:13:16;;;;;;;5.95;3.45;;;6.80;67.50;;;-142.21;100.00;112049.66;5000710;28;20199;-80
2021/12/12 04:15:43;;;;;;;5.05;2.97;;;6.80;67.40;;;-142.21;100.00;112049.66;5012391;28;20254;-79
2021/12/12 04:18:11;;;;;;;5.20;3.30;;;6.80;67.30;;;-142.21;100.00;112049.66;4998724;28;20289;-80
2021/12/12 04:20:40;;;;;;;5.40;3.42;;;6.80;66.70;;;-142.21;100.00;112049.66;4992465;28;20614;-80
2021/12/12 04:23:16;;;;;;;5.50;2.90;;;6.80;67.40;;;-142.21;100.00;112049.66;5011708;28;20265;-80
2021/12/12 04:25:43;;;;;;;4.00;3.30;;;6.80;66.50;;;-142.21;100.00;112049.66;5012068;28;20253;-80
2021/12/12 04:28:12;;;;;;;4.80;3.33;;;6.70;66.30;;;-142.21;100.00;112049.66;5011751;28;20293;-80
2021/12/12 04:30:40;;;;;;;5.57;3.20;;;6.70;66.50;;;-142.21;100.00;112049.66;5011567;28;20219;-79
2021/12/12 04:33:08;;;;;;;5.55;3.30;;;6.60;66.30;;;-142.21;100.00;112049.66;4997688;28;20299;-79
2021/12/12 04:35:39;;;;;;;4.95;3.47;;;6.60;66.60;;;-142.21;100.00;112049.66;4994629;28;20216;-79
2021/12/12 04:38:06;;;;;;;5.60;3.63;;;6.50;66.90;;;-142.21;100.00;112049.66;5007296;28;20220;-79
2021/12/12 04:40:37;;;;;;;4.75;2.80;;;6.50;66.90;;;-142.21;100.00;112049.66;4996286;28;20286;-78
2021/12/12 04:43:05;;;;;;;5.68;3.63;;;6.50;66.90;;;-142.21;100.00;112049.66;5005785;28;20226;-79
2021/12/12 04:46:03;;;;;;;5.57;3.80;;;6.50;66.40;;;-142.21;100.00;112049.66;4995906;28;20259;-78
2021/12/12 04:51:40;;;;;;;4.83;3.00;;;6.30;67.50;;;-142.21;100.00;112049.66;5014198;28;20195;-78
2021/12/12 04:54:28;;;;;;;5.20;3.20;;;6.20;67.30;;;-142.21;100.00;112049.66;4996076;28;20462;-80
2021/12/12 04:57:08;;;;;;;4.90;3.37;;;6.20;67.20;;;-142.21;100.00;112049.66;4996149;28;20467;-80
2021/12/12 04:59:43;;;;;;;5.63;3.50;;;6.20;66.80;;;-142.21;100.00;112049.66;4995971;28;20415;-81
2021/12/12 05:02:22;;;;;;;4.43;3.60;;;6.20;66.60;;;-142.21;100.00;112049.66;4995791;28;20647;-80
2021/12/12 05:05:00;;;;;;;6.18;3.72;;;6.20;66.80;;;-142.21;100.00;112049.66;4998481;28;20254;-79
2021/12/12 05:07:35;;;;;;;5.97;3.80;;;6.20;66.80;;;-142.21;100.00;112049.66;4998500;28;20270;-78
2021/12/12 05:10:11;;;;;;;5.32;3.35;;;6.20;66.70;;;-142.21;100.00;112049.66;4995452;28;20711;-79
2021/12/12 05:12:46;;;;;;;6.93;3.67;;;6.20;66.70;;;-142.21;100.00;112049.66;4995475;28;20203;-80
2021/12/12 05:15:21;;;;;;;7.55;3.75;;;6.10;66.60;;;-142.21;100.00;112049.66;4979581;28;20283;-79
2021/12/12 05:17:56;;;;;;;5.63;3.35;;;6.00;67.40;;;-142.21;100.00;112049.66;5014571;28;20777;-80
2021/12/12 05:20:29;;;;;;;7.20;3.90;;;6.00;67.20;;;-142.21;100.00;112049.66;5012645;28;20545;-80
2021/12/12 05:23:02;;;;;;;7.13;3.85;;;6.00;67.50;;;-142.21;100.00;112049.66;4996505;28;20196;-80
2021/12/12 05:25:39;;;;;;;6.03;3.70;;;6.00;67.30;;;-142.21;100.00;112049.66;4997317;28;20290;-79
2021/12/12 05:28:10;;;;;;;5.32;3.22;;;6.00;67.90;;;-142.21;100.00;112049.66;5006346;28;20326;-80
2021/12/12 05:30:38;;;;;;;7.28;3.60;;;6.00;67.60;;;-142.21;100.00;112049.66;5010022;28;20310;-80
2021/12/12 05:33:10;;;;;;;5.50;3.55;;;6.00;66.80;;;-142.21;100.00;112049.66;5004247;28;20256;-80
2021/12/12 05:35:40;;;;;;;5.90;3.83;;;5.90;66.80;;;-142.21;100.00;112049.66;5012993;28;20644;-79
2021/12/12 05:38:10;;;;;;;5.35;3.50;;;5.90;66.70;;;-142.21;100.00;112049.66;5011181;28;20223;-80
2021/12/12 05:40:41;;;;;;;4.15;3.22;;;5.80;67.10;;;-142.21;100.00;112049.66;4995099;28;20726;-79
2021/12/12 05:43:09;;;;;;;5.55;3.28;;;5.80;66.70;;;-142.21;100.00;112049.66;5013255;28;20282;-79
2021/12/12 05:45:38;;;;;;;5.88;3.60;;;5.80;66.50;;;-142.21;100.00;112049.66;5014054;28;20290;-80
2021/12/12 05:48:09;;;;;;;5.93;3.83;;;5.80;67.20;;;-142.21;100.00;112049.66;5013712;28;20243;-80
2021/12/12 05:50:40;;;;;;;5.60;3.63;;;5.80;67.30;;;-142.21;100.00;112049.66;5003114;28;20709;-80
2021/12/12 05:53:09;;;;;;;6.32;4.20;;;5.80;67.50;;;-142.21;100.00;112049.66;4994931;28;20192;-80
2021/12/12 05:55:39;;;;;;;5.13;3.47;;;5.70;67.20;;;-142.21;100.00;112049.66;5011500;28;20219;-80
2021/12/12 05:58:11;;;;;;;7.32;4.57;;;5.70;67.70;;;-142.21;100.00;112049.66;5013723;28;20231;-80
2021/12/12 06:00:45;;;;;;;8.05;4.18;;;5.80;67.70;;;-142.21;100.00;112049.66;5003808;28;20727;-79
2021/12/12 06:03:18;;;;;;;7.18;3.70;;;5.80;68.10;;;-142.21;100.00;112049.66;4994959;28;20326;-78
2021/12/12 06:05:45;;;;;;;5.97;3.90;;;5.70;68.20;;;-142.21;100.00;112049.66;5003032;28;20695;-80
2021/12/12 06:08:15;;;;;;;4.88;3.92;;;5.70;68.60;;;-142.21;100.00;112049.66;5013783;28;20704;-79
2021/12/12 06:10:46;;;;;;;5.45;3.55;;;5.70;68.50;;;-142.21;100.00;112049.66;5013441;28;20266;-80
2021/12/12 06:13:19;;;;;;;8.52;3.90;;;5.70;68.20;;;-142.21;100.00;112049.66;5012649;28;20227;-80
2021/12/12 06:15:51;;;;;;;5.82;3.63;;;5.80;68.50;;;-142.21;100.00;112049.66;5007617;28;20251;-80
2021/12/12 06:18:25;;;;;;;5.70;3.55;;;5.70;68.10;;;-142.21;100.00;112049.66;4980840;28;20202;-80
2021/12/12 06:20:54;;;;;;;6.90;3.40;;;5.70;68.30;;;-142.21;100.00;112049.66;5007306;28;20572;-80
2021/12/12 06:23:23;;;;;;;5.80;3.67;;;5.70;68.00;;;-142.21;100.00;112049.66;4993987;28;20250;-79
2021/12/12 06:25:52;;;;;;;6.95;3.78;;;5.70;68.10;;;-142.21;100.00;112049.66;4998840;28;20300;-79
2021/12/12 06:28:25;;;;;;;6.68;3.88;;;5.70;68.50;;;-142.21;100.00;112049.66;5013447;28;20258;-77
2021/12/12 06:30:54;;;;;;;4.70;3.20;;;5.70;68.40;;;-142.21;100.00;112049.66;5003782;28;20641;-79
2021/12/12 06:33:24;;;;;;;7.32;3.88;;;5.70;69.10;;;-142.21;100.00;112049.66;4997956;28;20323;-79
2021/12/12 06:35:52;;;;;;;6.03;3.70;;;5.70;68.60;;;-142.21;100.00;112049.66;5006054;28;20302;-78
2021/12/12 06:38:23;;;;;;;5.10;3.60;;;5.70;68.30;;;-142.21;100.00;112049.66;5013421;28;20227;-79
2021/12/12 06:40:53;;;;;;;7.72;3.67;;;5.80;68.30;;;-142.21;100.00;112049.66;5013350;28;20318;-80
2021/12/12 06:43:23;;;;;;;4.20;2.90;;;5.80;68.00;;;-142.21;100.00;112049.66;5001339;28;20214;-77
2021/12/12 06:45:52;;;;;;;5.40;3.33;;;5.80;68.00;;;-142.21;100.00;112049.66;5013131;28;20231;-79
2021/12/12 06:48:22;;;;;;;4.78;2.85;;;5.80;69.50;;;-142.21;100.00;112049.66;5010790;28;20265;-79
2021/12/12 06:50:56;;;;;;;7.75;3.50;;;5.70;68.70;;;-142.21;100.00;112049.66;4993871;28;20227;-79
2021/12/12 06:53:28;;;;;;;4.45;3.10;;;5.70;68.90;;;-142.21;100.00;112049.66;4993342;28;20327;-81
2021/12/12 06:55:59;;;;;;;4.55;3.00;;;5.70;68.30;;;-142.21;100.00;112049.66;5008952;28;20227;-80
2021/12/12 06:58:30;;;;;;;7.60;3.45;;;5.70;68.60;;;-142.21;100.00;112049.66;4993025;28;20227;-79
2021/12/12 07:01:03;;;;;;;4.78;3.33;;;5.80;68.70;;;-142.21;100.00;112049.66;4993897;28;20264;-78
2021/12/12 07:03:33;;;;;;;4.32;3.30;;;5.80;68.50;;;-142.21;100.00;112049.66;5009525;28;20305;-80
2021/12/12 07:06:01;;;;;;;5.07;2.85;;;5.80;68.50;;;-142.21;100.00;112049.66;5004713;28;20313;-78
2021/12/12 07:08:29;;;;;;;5.55;3.35;;;5.90;68.60;;;-142.21;100.00;112049.66;4992944;28;20224;-80
2021/12/12 07:10:56;;;;;;;6.00;3.28;;;5.90;68.30;;;-142.21;100.00;112049.66;4999572;28;20238;-80
2021/12/12 07:13:25;;;;;;;5.55;3.42;;;5.90;68.50;;;-142.21;100.00;112049.66;5012689;28;20290;-80
2021/12/12 07:15:57;;;;;;;4.88;3.25;;;5.90;68.40;;;-142.21;100.00;112049.66;5009649;28;20274;-80
2021/12/12 07:18:29;;;;;;;6.30;3.10;;;6.00;68.30;;;-142.21;100.00;112049.66;5012545;28;20636;-79
2021/12/12 07:21:06;;;;;;;5.75;3.10;;;6.00;68.10;;;-142.21;100.00;112049.66;5012577;28;20305;-80
2021/12/12 07:23:36;;;;;;;7.13;3.53;;;6.00;67.90;;;-142.21;100.00;112049.66;5012305;28;20352;-78
2021/12/12 07:26:08;;;;;;;4.35;3.03;;;6.00;67.50;;;-142.21;100.00;112049.66;4994369;28;20311;-81
2021/12/12 07:28:37;;;;;;;3.42;2.92;;;6.10;67.70;;;-142.21;100.00;112049.66;4997881;28;20305;-80
2021/12/12 07:31:11;;;;;;;4.22;3.53;;;6.10;67.70;;;-142.21;100.00;112049.66;4997139;28;20720;-80
2021/12/12 07:33:39;;;;;;;5.35;3.20;;;6.20;68.20;;;-142.21;100.00;112049.66;4992770;28;20235;-80
2021/12/12 07:36:12;;;;;;;3.63;3.15;;;6.20;68.30;;;-142.21;100.00;112049.66;4994875;28;20251;-77
2021/12/12 07:38:45;;;;;;;5.22;3.53;;;6.30;68.10;;;-142.21;100.00;112049.66;4993137;28;20314;-78
2021/12/12 07:41:14;;;;;;;3.97;3.20;;;6.30;68.00;;;-142.21;100.00;112049.66;4992834;28;20262;-78
2021/12/12 07:43:42;;;;;;;5.63;3.83;;;6.30;67.70;;;-142.21;100.00;112049.66;4992936;28;20613;-78
2021/12/12 07:46:09;;;;;;;5.63;3.40;;;6.30;67.70;;;-142.21;100.00;112049.66;4992228;28;20305;-79
2021/12/12 07:48:39;;;;;;;5.25;3.45;;;6.30;68.30;;;-142.21;100.00;112049.66;4992876;28;20294;-78
2021/12/12 07:51:09;;;;;;;3.95;3.38;;;6.30;68.50;;;-142.21;100.00;112049.66;4992273;28;20298;-79
2021/12/12 07:53:36;;;;;;;5.00;3.75;;;6.30;68.80;;;-142.21;100.00;112049.66;4992534;28;20230;-79
2021/12/12 07:56:05;;;;;;;4.90;3.25;;;6.30;68.90;;;-142.21;100.00;112049.66;4992223;28;20263;-79
2021/12/12 07:58:33;;;;;;;3.45;3.15;;;6.30;69.00;;;-142.21;100.00;112049.66;5010191;28;20223;-79
2021/12/12 08:01:02;;;;;;;8.23;3.67;;;6.40;69.10;;;-142.21;100.00;112049.66;5008351;28;20806;-79
2021/12/12 08:03:34;;;;;;;7.07;3.83;;;6.40;69.40;;;-142.21;100.00;112049.66;5008804;28;20235;-79
2021/12/12 08:06:02;;;;;;;4.05;3.25;;;6.50;69.40;;;-142.21;100.00;112049.66;4992221;28;20228;-79
2021/12/12 08:08:32;;;;;;;6.03;3.85;;;6.50;69.10;;;-142.21;100.00;112049.66;5012009;28;20218;-79
2021/12/12 08:11:00;;;;;;;4.72;3.50;;;6.70;69.20;;;-142.21;100.00;112049.66;5000220;28;20283;-77
2021/12/12 08:13:28;;;;;;;7.03;3.63;;;6.80;68.90;;;-142.21;100.00;112049.66;5007030;28;20314;-78
2021/12/12 08:15:56;;;;;;;4.18;3.40;;;6.90;68.70;;;-142.21;100.00;112049.66;4996826;28;20290;-78
2021/12/12 08:18:24;;;;;;;4.93;3.58;;;6.90;68.50;;;-142.21;100.00;112049.66;5011079;28;20277;-79
2021/12/12 08:20:54;;;;;;;5.68;3.95;;;7.00;68.50;;;-142.21;100.00;112049.66;5016096;28;20250;-78
2021/12/12 08:23:25;;;;;;;4.45;3.40;;;7.10;69.40;;;-142.21;100.00;112049.66;4997308;28;20227;-78
2021/12/12 08:25:56;;;;;;;5.47;4.28;;;7.10;68.70;;;-142.21;100.00;112049.66;5003150;28;20222;-79
2021/12/12 08:28:25;;;;;;;5.30;3.30;;;7.10;68.30;;;-142.21;100.00;112049.66;5015914;28;20631;-78
2021/12/12 08:30:53;;;;;;;5.43;3.92;;;7.10;68.40;;;-142.21;100.00;112049.66;4998740;28;20576;-79
2021/12/12 08:33:28;;;;;;;5.13;3.95;;;7.10;68.50;;;-142.21;100.00;112049.66;5000206;28;20286;-77
2021/12/12 08:35:56;;;;;;;5.50;3.80;;;7.20;68.90;;;-142.21;100.00;112049.66;5012677;28;20203;-78
2021/12/12 08:38:24;;;;;;;5.38;3.70;;;7.20;68.80;;;-142.21;100.00;112049.66;5011450;28;20513;-79
2021/12/12 08:41:00;;;;;;;7.57;4.27;;;7.20;68.20;;;-142.21;100.00;112049.66;5015423;28;20653;-78
2021/12/12 08:43:30;;;;;;;6.18;3.85;;;7.30;68.40;;;-142.21;100.00;112049.66;5015383;28;20469;-77
2021/12/12 08:46:05;;;;;;;5.07;3.43;;;7.30;68.20;;;-142.21;100.00;112049.66;5012504;28;20691;-80
2021/12/12 08:48:38;;;;;;;5.53;3.43;;;7.30;68.60;;;-142.21;100.00;112049.66;4995998;28;20962;-78
2021/12/12 08:51:12;;;;;;;4.63;3.20;;;7.40;68.20;;;-142.21;100.00;112049.66;4997449;28;20470;-78
2021/12/12 08:53:44;;;;;;;5.53;2.90;;;7.50;68.00;;;-142.21;100.00;112049.66;5007684;28;20458;-79
2021/12/12 08:56:20;;;;;;;4.83;3.20;;;7.60;67.90;;;-142.21;100.00;112049.66;4996262;28;20431;-78
2021/12/12 08:58:49;;;;;;;4.30;2.90;;;7.70;67.70;;;-142.21;100.00;112049.66;4995440;28;20439;-79
2021/12/12 09:01:19;;;;;;;4.47;3.10;;;7.90;67.20;;;-142.21;100.00;112049.66;5010507;28;20832;-79
2021/12/12 09:03:55;;;;;;;5.13;3.13;;;8.00;66.90;;;-142.21;100.00;112049.66;5015825;28;20214;-79
2021/12/12 09:06:29;;;;;;;6.53;2.87;;;8.00;66.60;;;-142.21;100.00;112049.66;5014952;28;21031;-80
2021/12/12 09:09:06;;;;;;;3.70;2.88;;;8.10;66.40;;;-142.21;100.00;112049.66;5014992;28;20442;-78
2021/12/12 09:11:44;;;;;;;5.10;2.70;;;8.10;65.80;;;-142.21;100.00;112049.66;5015560;28;20215;-78
2021/12/12 09:14:17;;;;;;;3.53;2.87;;;8.10;65.60;;;-142.21;100.00;112049.66;5015109;28;20438;-79
2021/12/12 09:16:51;;;;;;;4.70;2.73;;;8.10;66.00;;;-142.21;100.00;112049.66;5015169;28;20442;-78
2021/12/12 09:19:25;;;;;;;3.57;2.80;;;8.20;65.80;;;-142.21;100.00;112049.66;5014596;28;20438;-78
2021/12/12 09:22:01;;;;;;;5.50;3.10;;;8.30;65.50;;;-142.21;100.00;112049.66;5002661;28;20451;-79
2021/12/12 09:24:44;;;;;;;3.03;2.73;;;8.30;64.80;;;-142.21;100.00;112049.66;4995189;28;20239;-79
2021/12/12 09:27:19;;;;;;;5.03;2.50;;;8.30;65.00;;;-142.21;100.00;112049.66;5007779;28;20482;-79
2021/12/12 09:29:56;;;;;;;6.57;3.00;;;8.20;64.80;;;-142.21;100.00;112049.66;4981622;28;20474;-79
2021/12/12 09:32:31;;;;;;;4.67;3.03;;;8.20;65.10;;;-142.21;100.00;112049.66;4994736;28;20442;-80
2021/12/12 09:35:09;;;;;;;3.93;2.90;;;8.30;65.20;;;-142.21;100.00;112049.66;4994958;28;20441;-79
2021/12/12 09:37:47;;;;;;;4.97;3.03;;;8.60;64.70;;;-142.21;100.00;112049.66;4994549;28;20439;-78
2021/12/12 09:40:35;;;;;;;3.90;2.70;;;8.70;64.30;;;-142.21;100.00;112049.66;4995319;28;20816;-78
2021/12/12 09:43:34;;;;;;;5.00;2.87;;;8.70;64.40;;;-142.21;100.00;112049.66;4995204;28;20473;-79
2021/12/12 09:46:18;;;;;;;3.27;2.63;;;8.70;63.70;;;-142.21;100.00;112049.66;4997127;28;20522;-78
2021/12/12 09:52:24;;;;;;;4.17;2.90;;;8.70;63.30;;;-142.21;100.00;112049.66;4995036;28;20482;-78
2021/12/12 09:55:02;;;;;;;4.83;3.20;;;8.60;63.20;;;-142.21;100.00;112049.66;4995456;28;20459;-79
2021/12/12 09:57:38;;;;;;;3.13;2.70;;;8.60;63.80;;;-142.21;100.00;112049.66;5007054;28;21015;-78
2021/12/12 10:00:20;;;;;;;4.57;2.57;;;8.70;63.80;;;-142.21;100.00;112049.66;5014154;28;20448;-80
2021/12/12 10:03:17;;;;;;;5.47;3.10;;;8.90;64.30;;;-142.21;100.00;112049.66;5014038;28;20863;-80
2021/12/12 10:06:01;;;;;;;4.40;2.93;;;9.00;64.00;;;-142.21;100.00;112049.66;4985217;28;20562;-76
2021/12/12 10:08:51;;;;;;;4.07;2.70;;;9.00;63.30;;;-142.21;100.00;112049.66;4994539;28;20507;-76
2021/12/12 10:11:33;;;;;;;5.27;2.80;;;9.00;63.30;;;-142.21;100.00;112049.66;4999782;28;20542;-77
2021/12/12 10:14:12;;;;;;;5.30;3.03;;;9.00;63.40;;;-142.21;100.00;112049.66;5013651;28;20418;-76
2021/12/12 10:16:50;;;;;;;4.23;2.47;;;9.10;63.50;;;-142.21;100.00;112049.66;4994571;28;20455;-76
2021/12/12 10:19:47;;;;;;;3.23;2.70;;;9.20;62.80;;;-142.21;100.00;112049.66;4994133;28;20424;-77
2021/12/12 10:22:29;;;;;;;4.83;2.50;;;9.30;61.80;;;-142.21;100.00;112049.66;5006392;28;20438;-79
2021/12/12 10:25:06;;;;;;;4.37;2.30;;;9.40;61.80;;;-142.21;100.00;112049.66;4999735;28;20504;-80
2021/12/12 10:27:44;;;;;;;4.33;2.67;;;9.30;61.20;;;-142.21;100.00;112049.66;5012646;28;20876;-77
2021/12/12 10:30:16;;;;;;;4.07;2.50;;;9.40;61.40;;;-142.21;100.00;112049.66;4994100;28;20431;-78
2021/12/12 10:33:02;;;;;;;3.27;2.40;;;9.50;62.00;;;-142.21;100.00;112049.66;4994221;28;20829;-80
2021/12/12 10:35:37;;;;;;;4.80;2.30;;;9.50;61.10;;;-142.21;100.00;112049.66;4994546;28;20439;-77
2021/12/12 10:38:11;;;;;;;5.37;2.60;;;9.50;60.40;;;-142.21;100.00;112049.66;4997616;28;20449;-77
2021/12/12 10:40:48;;;;;;;4.47;2.70;;;9.50;60.00;;;-142.21;99.58;112049.66;5014423;28;20880;-80